createdAt,value
2018-07-10T00:02:11.298Z,101569.17
2018-07-10T00:04:51.672Z,101576.39
2018-07-10T00:07:47.989Z,101564.02
2018-07-10T00:10:58.091Z,101568.03
2018-07-10T00:13:27.180Z,101577.18
2018-07-10T00:15:56.222Z,101568.59
2018-07-10T00:18:25.325Z,101563.06
2018-07-10T00:20:55.248Z,101575.36
2018-07-10T00:23:24.366Z,101565.73
2018-07-10T00:25:53.461Z,101566.28
2018-07-10T00:28:22.573Z,101566.94
2018-07-10T00:30:51.663Z,101560.38
2018-07-10T00:33:20.923Z,101566.08
2018-07-10T00:35:50.016Z,101563.23
2018-07-10T00:38:30.456Z,101563.38
2018-07-10T00:40:59.553Z,101581.59
2018-07-10T00:43:28.613Z,101573.09
2018-07-10T00:45:57.743Z,101567.57
2018-07-10T00:48:27.810Z,101561.49
2018-07-10T00:50:58.445Z,101560.91
2018-07-10T00:53:27.546Z,101560.88
2018-07-10T00:55:56.787Z,101560.06
2018-07-10T00:58:25.925Z,101561.61
2018-07-10T01:00:54.988Z,101551.73
2018-07-10T01:03:24.053Z,101554.86
2018-07-10T01:05:53.183Z,101556.61
2018-07-10T01:08:22.253Z,101550.23
2018-07-10T01:10:57.650Z,101556.70
2018-07-10T01:13:26.743Z,101559.82
2018-07-10T01:15:55.868Z,101555.41
2018-07-10T01:18:26.954Z,101548.59
2018-07-10T01:20:56.282Z,101553.68
2018-07-10T01:23:29.354Z,101561.38
2018-07-10T01:26:00.122Z,101553.22
2018-07-10T01:28:30.006Z,101561.94
2018-07-10T01:30:59.109Z,101571.17
2018-07-10T01:33:28.255Z,101563.36
2018-07-10T01:35:57.580Z,101568.84
2018-07-10T01:38:26.721Z,101572.34
2018-07-10T01:40:55.847Z,101564.38
2018-07-10T01:43:25.000Z,101573.19
2018-07-10T01:45:54.119Z,101555.98
2018-07-10T01:48:23.200Z,101552.63
2018-07-10T01:50:53.026Z,101554.12
2018-07-10T01:53:22.370Z,101545.89
2018-07-10T01:55:51.525Z,101547.38
2018-07-10T01:58:21.298Z,101543.64
2018-07-10T02:00:50.503Z,101538.23
2018-07-10T02:03:19.550Z,101538.25
2018-07-10T02:05:48.673Z,101534.17
2018-07-10T02:08:17.800Z,101540.11
2018-07-10T02:10:46.900Z,101538.02
2018-07-10T02:13:16.040Z,101537.06
2018-07-10T02:15:45.241Z,101527.91
2018-07-10T02:18:14.352Z,101533.05
2018-07-10T02:21:00.779Z,101532.19
2018-07-10T02:23:36.221Z,101525.10
2018-07-10T02:26:07.347Z,101524.28
2018-07-10T02:28:36.464Z,101537.23
2018-07-10T02:31:05.563Z,101530.62
2018-07-10T02:33:34.636Z,101527.27
2018-07-10T02:36:03.947Z,101525.03
2018-07-10T02:38:34.161Z,101529.60
2018-07-10T02:41:03.301Z,101528.48
2018-07-10T02:43:32.438Z,101525.95
2018-07-10T02:46:02.103Z,101528.93
2018-07-10T02:48:32.467Z,101530.02
2018-07-10T02:51:03.853Z,101526.39
2018-07-10T02:53:33.624Z,101527.39
2018-07-10T02:56:02.754Z,101527.63
2018-07-10T02:58:34.412Z,101524.55
2018-07-10T03:01:04.447Z,101524.80
2018-07-10T03:03:36.154Z,101528.34
2018-07-10T03:06:05.928Z,101523.57
2018-07-10T03:08:35.356Z,101521.57
2018-07-10T03:11:04.610Z,101523.36
2018-07-10T03:13:33.873Z,101522.20
2018-07-10T03:16:03.026Z,101513.81
2018-07-10T03:18:32.574Z,101510.78
2018-07-10T03:21:01.684Z,101516.02
2018-07-10T03:23:30.766Z,101516.42
2018-07-10T03:25:59.860Z,101515.01
2018-07-10T03:28:28.970Z,101512.91
2018-07-10T03:31:13.240Z,101510.28
2018-07-10T03:33:45.450Z,101511.82
2018-07-10T03:36:14.555Z,101517.39
2018-07-10T03:38:43.648Z,101514.65
2018-07-10T03:41:13.108Z,101515.97
2018-07-10T03:43:43.192Z,101514.11
2018-07-10T03:46:12.250Z,101511.20
2018-07-10T03:48:41.419Z,101517.67
2018-07-10T03:51:11.618Z,101518.75
2018-07-10T03:53:41.289Z,101518.92
2018-07-10T03:56:11.097Z,101511.56
2018-07-10T03:58:40.344Z,101512.56
2018-07-10T04:01:09.447Z,101504.45
2018-07-10T04:03:38.550Z,101510.23
2018-07-10T04:06:08.054Z,101509.62
2018-07-10T04:08:38.463Z,101509.70
2018-07-10T04:11:07.611Z,101514.59
2018-07-10T04:13:38.142Z,101511.02
2018-07-10T04:16:07.296Z,101515.21
2018-07-10T04:18:36.570Z,101515.42
2018-07-10T04:21:19.938Z,101516.13
2018-07-10T04:23:54.834Z,101519.14
2018-07-10T04:26:24.153Z,101515.31
2018-07-10T04:29:04.480Z,101517.27
2018-07-10T04:31:46.412Z,101524.17
2018-07-10T04:34:15.880Z,101517.44
2018-07-10T04:36:44.987Z,101515.49
2018-07-10T04:39:20.720Z,101515.52
2018-07-10T04:41:57.769Z,101511.77
2018-07-10T04:44:32.144Z,101517.44
2018-07-10T04:47:16.498Z,101512.28
2018-07-10T04:49:52.212Z,101512.75
2018-07-10T04:52:29.655Z,101508.50
2018-07-10T04:55:15.248Z,101506.12
2018-07-10T04:57:57.646Z,101513.84
2018-07-10T05:00:28.095Z,101513.05
2018-07-10T05:02:58.967Z,101517.12
2018-07-10T05:05:30.780Z,101507.80
2018-07-10T05:08:01.639Z,101502.48
2018-07-10T05:10:31.613Z,101504.53
2018-07-10T05:13:02.717Z,101501.33
2018-07-10T05:15:31.908Z,101501.66
2018-07-10T05:18:05.984Z,101499.39
2018-07-10T05:20:35.789Z,101502.72
2018-07-10T05:23:04.993Z,101496.23
2018-07-10T05:25:35.990Z,101493.48
2018-07-10T05:28:05.165Z,101493.41
2018-07-10T05:30:36.068Z,101503.14
2018-07-10T05:33:05.558Z,101493.97
2018-07-10T05:35:34.696Z,101493.05
2018-07-10T05:38:06.493Z,101496.78
2018-07-10T05:40:35.832Z,101494.58
2018-07-10T05:43:12.000Z,101486.66
2018-07-10T05:45:41.428Z,101494.03
2018-07-10T05:48:11.056Z,101491.12
2018-07-10T05:50:40.399Z,101480.84
2018-07-10T05:53:11.313Z,101475.27
2018-07-10T05:55:49.134Z,101477.03
2018-07-10T05:58:18.240Z,101479.02
2018-07-10T06:00:47.325Z,101475.53
2018-07-10T06:03:16.409Z,101471.08
2018-07-10T06:05:45.549Z,101470.16
2018-07-10T06:08:14.925Z,101464.70
2018-07-10T06:10:43.995Z,101462.25
2018-07-10T06:13:13.118Z,101455.31
2018-07-10T06:15:42.245Z,101453.80
2018-07-10T06:18:11.336Z,101455.50
2018-07-10T06:20:41.872Z,101458.28
2018-07-10T06:23:11.050Z,101450.88
2018-07-10T06:25:40.762Z,101450.27
2018-07-10T06:28:13.896Z,101451.32
2018-07-10T06:30:43.162Z,101449.83
2018-07-10T06:33:23.900Z,101457.23
2018-07-10T06:36:31.917Z,101450.01
2018-07-10T06:39:07.188Z,101449.27
2018-07-10T06:41:40.268Z,101453.08
2018-07-10T06:44:09.410Z,101447.75
2018-07-10T06:46:40.635Z,101452.87
2018-07-10T06:49:22.013Z,101448.22
2018-07-10T06:52:13.714Z,101446.60
2018-07-10T06:54:57.516Z,101443.58
2018-07-10T06:57:33.188Z,101440.36
2018-07-10T07:00:03.337Z,101435.20
2018-07-10T07:02:33.771Z,101437.88
2018-07-10T07:05:02.869Z,101438.36
2018-07-10T07:07:33.623Z,101446.84
2018-07-10T07:10:04.469Z,101448.27
2018-07-10T07:12:34.359Z,101447.89
2018-07-10T07:15:05.123Z,101447.89
2018-07-10T07:17:34.878Z,101450.85
2018-07-10T07:20:04.057Z,101445.33
2018-07-10T07:22:34.111Z,101447.59
2018-07-10T07:25:03.966Z,101436.57
2018-07-10T07:27:33.430Z,101445.41
2018-07-10T07:30:02.691Z,101445.50
2018-07-10T07:32:32.269Z,101446.85
2018-07-10T07:35:01.349Z,101445.70
2018-07-10T07:37:31.273Z,101442.47
2018-07-10T07:40:00.393Z,101442.25
2018-07-10T07:42:29.479Z,101445.70
2018-07-10T07:44:58.710Z,101450.85
2018-07-10T07:47:29.606Z,101443.80
2018-07-10T07:49:58.774Z,101436.19
2018-07-10T07:52:30.395Z,101425.50
2018-07-10T07:55:00.998Z,101428.08
2018-07-10T07:57:30.102Z,101421.13
2018-07-10T07:59:59.255Z,101421.86
2018-07-10T08:02:28.415Z,101412.17
2018-07-10T08:04:57.905Z,101413.50
2018-07-10T08:07:28.194Z,101413.67
2018-07-10T08:09:58.212Z,101412.81
2018-07-10T08:12:28.587Z,101403.24
2018-07-10T08:14:59.934Z,101405.98
2018-07-10T08:17:29.628Z,101407.81
2018-07-10T08:19:59.718Z,101402.17
2018-07-10T08:22:29.099Z,101410.18
2018-07-10T08:24:58.273Z,101402.33
2018-07-10T08:27:28.095Z,101409.58
2018-07-10T08:29:57.699Z,101399.97
2018-07-10T08:32:28.365Z,101394.42
2018-07-10T08:34:57.627Z,101396.22
2018-07-10T08:37:27.016Z,101398.16
2018-07-10T08:39:56.186Z,101392.84
2018-07-10T08:42:25.432Z,101378.42
2018-07-10T08:44:54.793Z,101376.34
2018-07-10T08:47:23.918Z,101379.01
2018-07-10T08:49:53.041Z,101382.66
2018-07-10T08:52:22.158Z,101374.77
2018-07-10T08:54:51.269Z,101379.41
2018-07-10T08:57:21.124Z,101377.78
2018-07-10T08:59:50.377Z,101377.34
2018-07-10T09:02:19.476Z,101379.95
2018-07-10T09:04:48.570Z,101373.59
2018-07-10T09:07:17.777Z,101381.80
2018-07-10T09:09:46.879Z,101381.80
2018-07-10T09:12:16.006Z,101384.14
2018-07-10T09:14:45.176Z,101371.02
2018-07-10T09:17:14.586Z,101373.83
2018-07-10T09:19:43.711Z,101377.27
2018-07-10T09:22:13.624Z,101381.50
2018-07-10T09:24:46.839Z,101383.40
2018-07-10T09:27:17.640Z,101379.89
2018-07-10T09:29:47.321Z,101375.20
2018-07-10T09:32:20.627Z,101373.76
2018-07-10T09:34:50.174Z,101378.45
2018-07-10T09:37:24.540Z,101376.52
2018-07-10T09:40:26.921Z,101375.59
2018-07-10T09:42:58.760Z,101382.03
2018-07-10T09:45:42.722Z,101376.59
2018-07-10T09:48:11.833Z,101377.98
2018-07-10T09:50:41.126Z,101379.78
2018-07-10T09:53:10.292Z,101370.83
2018-07-10T09:55:39.372Z,101375.77
2018-07-10T09:58:08.488Z,101366.92
2018-07-10T10:00:45.808Z,101373.00
2018-07-10T10:03:15.023Z,101364.50
2018-07-10T10:05:45.500Z,101357.19
2018-07-10T10:08:14.579Z,101349.72
2018-07-10T10:10:43.776Z,101349.68
2018-07-10T10:13:12.905Z,101343.66
2018-07-10T10:15:42.108Z,101343.92
2018-07-10T10:18:11.272Z,101340.28
2018-07-10T10:20:41.465Z,101339.05
2018-07-10T10:23:12.409Z,101337.50
2018-07-10T10:25:49.529Z,101343.77
2018-07-10T10:28:21.440Z,101332.64
2018-07-10T10:30:50.563Z,101336.11
2018-07-10T10:33:19.636Z,101334.41
2018-07-10T10:35:49.061Z,101331.02
2018-07-10T10:38:18.851Z,101315.42
2018-07-10T10:40:49.800Z,101317.88
2018-07-10T10:43:18.911Z,101316.55
2018-07-10T10:45:48.314Z,101313.64
2018-07-10T10:48:18.272Z,101314.52
2018-07-10T10:50:50.382Z,101315.75
2018-07-10T10:53:20.059Z,101319.69
2018-07-10T10:55:49.382Z,101315.28
2018-07-10T10:58:20.072Z,101319.45
2018-07-10T11:00:49.331Z,101316.22
2018-07-10T11:03:18.424Z,101311.65
2018-07-10T11:05:47.824Z,101315.75
2018-07-10T11:08:16.978Z,101314.25
2018-07-10T11:10:47.139Z,101305.48
2018-07-10T11:13:17.312Z,101305.84
2018-07-10T11:15:49.419Z,101301.64
2018-07-10T11:18:37.334Z,101286.05
2018-07-10T11:21:14.656Z,101289.75
2018-07-10T11:23:49.721Z,101281.30
2018-07-10T11:26:50.576Z,101287.38
2018-07-10T11:29:19.726Z,101282.11
2018-07-10T11:31:48.898Z,101281.03
2018-07-10T11:34:17.968Z,101278.37
2018-07-10T11:36:47.173Z,101272.75
2018-07-10T11:39:16.459Z,101283.70
2018-07-10T11:41:51.429Z,101274.52
2018-07-10T11:44:20.568Z,101270.94
2018-07-10T11:46:50.118Z,101278.20
2018-07-10T11:49:19.273Z,101272.31
2018-07-10T11:51:48.444Z,101274.75
2018-07-10T11:54:18.062Z,101267.89
2018-07-10T11:56:47.173Z,101269.02
2018-07-10T11:59:16.378Z,101273.81
2018-07-10T12:01:45.656Z,101271.36
2018-07-10T12:04:14.815Z,101275.34
2018-07-10T12:06:49.018Z,101282.07
2018-07-10T12:09:18.313Z,101274.97
2018-07-10T12:11:47.430Z,101285.42
2018-07-10T12:14:16.564Z,101284.86
2018-07-10T12:16:46.606Z,101284.13
2018-07-10T12:19:16.705Z,101282.32
2018-07-10T12:21:45.966Z,101282.52
2018-07-10T12:24:15.380Z,101297.58
2018-07-10T12:26:44.512Z,101296.52
2018-07-10T12:29:13.649Z,101291.76
2018-07-10T12:31:42.756Z,101296.80
2018-07-10T12:34:11.884Z,101298.88
2018-07-10T12:36:41.000Z,101302.98
2018-07-10T12:39:10.076Z,101294.81
2018-07-10T12:41:39.264Z,101285.77
2018-07-10T12:44:08.332Z,101276.88
2018-07-10T12:46:37.421Z,101270.98
2018-07-10T12:49:06.565Z,101263.20
2018-07-10T12:51:35.695Z,101256.45
2018-07-10T12:54:05.017Z,101249.22
2018-07-10T12:56:34.162Z,101250.07
2018-07-10T12:59:03.322Z,101244.14
2018-07-10T13:01:32.504Z,101241.26
2018-07-10T13:04:01.636Z,101232.66
2018-07-10T13:06:30.742Z,101240.23
2018-07-10T13:08:59.853Z,101236.84
2018-07-10T13:11:29.003Z,101241.25
2018-07-10T13:13:58.131Z,101238.18
2018-07-10T13:16:27.264Z,101227.83
2018-07-10T13:18:56.418Z,101227.83
2018-07-10T13:21:25.679Z,101213.64
2018-07-10T13:23:54.848Z,101208.45
2018-07-10T13:26:24.062Z,101224.02
2018-07-10T13:28:53.445Z,101217.21
2018-07-10T13:31:22.613Z,101207.06
2018-07-10T13:33:51.712Z,101202.83
2018-07-10T13:36:21.013Z,101203.51
2018-07-10T13:38:50.106Z,101205.50
2018-07-10T13:41:19.291Z,101204.59
2018-07-10T13:43:48.901Z,101204.56
2018-07-10T13:46:18.111Z,101210.08
2018-07-10T13:48:47.311Z,101196.94
2018-07-10T13:51:16.480Z,101185.87
2018-07-10T13:53:45.602Z,101195.38
2018-07-10T13:56:14.749Z,101188.69
2018-07-10T13:58:43.889Z,101185.17
2018-07-10T14:01:13.076Z,101172.48
2018-07-10T14:03:42.224Z,101180.59
2018-07-10T14:06:11.324Z,101181.12
2018-07-10T14:08:40.466Z,101171.72
2018-07-10T14:11:09.572Z,101159.27
2018-07-10T14:13:38.693Z,101153.66
2018-07-10T14:16:07.767Z,101153.92
2018-07-10T14:18:37.002Z,101144.66
2018-07-10T14:21:07.915Z,101142.33
2018-07-10T14:23:37.460Z,101134.08
2018-07-10T14:26:06.615Z,101132.66
2018-07-10T14:28:35.699Z,101128.52
2018-07-10T14:31:04.996Z,101123.53
2018-07-10T14:33:34.091Z,101124.02
2018-07-10T14:36:03.241Z,101111.95
2018-07-10T14:38:32.371Z,101120.34
2018-07-10T14:41:04.536Z,101117.28
2018-07-10T14:43:35.840Z,101110.25
2018-07-10T14:46:07.978Z,101118.78
2018-07-10T14:48:45.793Z,101112.83
2018-07-10T14:51:18.081Z,101120.38
2018-07-10T14:53:47.353Z,101114.78
2018-07-10T14:56:16.928Z,101105.15
2018-07-10T14:58:46.296Z,101107.23
2018-07-10T15:01:15.399Z,101114.54
2018-07-10T15:03:44.530Z,101112.11
2018-07-10T15:06:13.612Z,101116.84
2018-07-10T15:08:42.810Z,101110.16
2018-07-10T15:11:11.900Z,101109.52
2018-07-10T15:13:52.288Z,101106.47
2018-07-10T15:16:21.363Z,101103.69
2018-07-10T15:18:51.230Z,101087.61
2018-07-10T15:21:21.609Z,101086.62
2018-07-10T15:23:50.737Z,101089.88
2018-07-10T15:26:19.865Z,101082.48
2018-07-10T15:28:48.950Z,101087.25
2018-07-10T15:31:18.163Z,101086.41
2018-07-10T15:33:47.405Z,101090.06
2018-07-10T15:36:16.532Z,101083.34
2018-07-10T15:38:46.421Z,101093.03
2018-07-10T15:41:16.430Z,101089.59
2018-07-10T15:43:45.777Z,101084.80
2018-07-10T15:46:14.889Z,101086.11
2018-07-10T15:48:44.057Z,101091.80
2018-07-10T15:51:13.555Z,101073.25
2018-07-10T15:53:42.711Z,101071.70
2018-07-10T15:56:11.847Z,101068.60
2018-07-10T15:58:41.131Z,101071.47
2018-07-10T16:01:10.306Z,101069.20
2018-07-10T16:03:39.395Z,101064.33
2018-07-10T16:06:08.968Z,101057.37
2018-07-10T16:08:39.044Z,101062.29
2018-07-10T16:11:08.480Z,101062.66
2018-07-10T16:13:40.300Z,101050.68
2018-07-10T16:16:11.108Z,101043.81
2018-07-10T16:18:44.436Z,101037.61
2018-07-10T16:21:13.717Z,101042.34
2018-07-10T16:23:42.852Z,101035.53
2018-07-10T16:26:17.187Z,101036.57
2018-07-10T16:28:46.329Z,101037.53
2018-07-10T16:31:17.656Z,101041.55
2018-07-10T16:33:47.506Z,101024.73
2018-07-10T16:36:17.699Z,101015.13
2018-07-10T16:38:46.835Z,101021.79
2018-07-10T16:41:22.743Z,101000.48
2018-07-10T16:43:52.850Z,101000.65
2018-07-10T16:46:23.380Z,100996.95
2018-07-10T16:49:03.266Z,100999.86
2018-07-10T16:51:48.964Z,101009.16
2018-07-10T16:54:18.563Z,101018.67
2018-07-10T16:56:47.679Z,101027.18
2018-07-10T16:59:16.806Z,101013.50
2018-07-10T17:01:45.986Z,101013.02
2018-07-10T17:04:15.565Z,101013.08
2018-07-10T17:06:45.409Z,101007.97
2018-07-10T17:09:14.533Z,101010.26
2018-07-10T17:11:43.672Z,101009.04
2018-07-10T17:14:12.886Z,101014.30
2018-07-10T17:16:42.215Z,101008.59
2018-07-10T17:19:11.410Z,101007.75
2018-07-10T17:21:40.807Z,101005.44
2018-07-10T17:24:10.216Z,101002.02
2018-07-10T17:26:40.098Z,100999.59
2018-07-10T17:29:11.647Z,101005.93
2018-07-10T17:31:40.956Z,101012.73
2018-07-10T17:34:12.726Z,101012.39
2018-07-10T17:36:42.022Z,100994.97
2018-07-10T17:39:11.640Z,101005.45
2018-07-10T17:41:41.641Z,101012.00
2018-07-10T17:44:11.445Z,101016.14
2018-07-10T17:46:40.803Z,101020.33
2018-07-10T17:49:10.356Z,101049.52
2018-07-10T17:51:39.537Z,101047.69
2018-07-10T17:54:09.355Z,101050.48
2018-07-10T17:56:38.515Z,101052.55
2018-07-10T17:59:08.232Z,101059.63
2018-07-10T18:01:38.053Z,101061.92
2018-07-10T18:04:07.895Z,101064.14
2018-07-10T18:06:37.310Z,101060.72
2018-07-10T18:09:07.309Z,101054.14
2018-07-10T18:11:36.568Z,101060.73
2018-07-10T18:14:08.831Z,101063.28
2018-07-10T18:16:38.099Z,101064.75
2018-07-10T18:19:07.269Z,101067.67
2018-07-10T18:21:36.583Z,101068.27
2018-07-10T18:24:05.757Z,101067.41
2018-07-10T18:26:34.936Z,101064.50
2018-07-10T18:29:04.391Z,101072.42
2018-07-10T18:31:33.487Z,101062.31
2018-07-10T18:34:02.602Z,101068.61
2018-07-10T18:36:31.795Z,101069.11
2018-07-10T18:39:01.010Z,101071.79
2018-07-10T18:41:30.165Z,101069.11
2018-07-10T18:43:59.280Z,101075.33
2018-07-10T18:46:28.395Z,101075.95
2018-07-10T18:48:57.535Z,101078.48
2018-07-10T18:51:27.531Z,101079.72
2018-07-10T18:53:56.730Z,101081.52
2018-07-10T18:56:25.831Z,101084.34
2018-07-10T18:59:04.970Z,101090.05
2018-07-10T19:02:08.757Z,101089.33
2018-07-10T19:04:46.514Z,101094.45
2018-07-10T19:07:15.640Z,101095.28
2018-07-10T19:09:44.781Z,101105.64
2018-07-10T19:12:15.456Z,101107.23
2018-07-10T19:14:45.748Z,101098.44
2018-07-10T19:17:20.720Z,101107.20
2018-07-10T19:19:53.598Z,101109.20
2018-07-10T19:22:26.874Z,101114.67
2018-07-10T19:24:56.856Z,101109.05
2018-07-10T19:27:31.572Z,101119.17
2018-07-10T19:30:04.994Z,101118.66
2018-07-10T19:32:34.346Z,101122.44
2018-07-10T19:35:04.279Z,101120.95
2018-07-10T19:37:35.252Z,101117.05
2018-07-10T19:40:04.968Z,101117.64
2018-07-10T19:42:35.260Z,101123.73
2018-07-10T19:45:05.789Z,101130.07
2018-07-10T19:47:35.010Z,101129.72
2018-07-10T19:50:16.794Z,101125.08
2018-07-10T19:52:52.258Z,101133.97
2018-07-10T19:55:22.797Z,101132.04
2018-07-10T19:58:16.137Z,101139.23
2018-07-10T20:00:48.421Z,101146.79
2018-07-10T20:03:36.631Z,101140.22
2018-07-10T20:06:11.163Z,101146.52
2018-07-10T20:08:45.000Z,101146.67
2018-07-10T20:11:18.164Z,101149.67
2018-07-10T20:13:48.651Z,101163.68
2018-07-10T20:16:51.705Z,101166.94
2018-07-10T20:19:44.533Z,101169.73
2018-07-10T20:23:23.597Z,101174.61
2018-07-10T20:26:06.890Z,101181.02
2018-07-10T20:28:42.336Z,101185.04
2018-07-10T20:31:53.811Z,101182.47
2018-07-10T20:34:28.742Z,101184.98
2018-07-10T20:36:57.917Z,101190.96
2018-07-10T20:39:34.545Z,101185.05
2018-07-10T20:42:04.176Z,101189.50
2018-07-10T20:44:51.270Z,101189.19
2018-07-10T20:47:20.860Z,101194.48
2018-07-10T20:49:56.763Z,101196.59
2018-07-10T20:52:32.414Z,101200.53
2018-07-10T20:55:06.165Z,101206.60
2018-07-10T20:58:09.450Z,101208.32
2018-07-10T21:00:40.256Z,101210.96
2018-07-10T21:03:16.578Z,101210.90
2018-07-10T21:05:49.061Z,101217.00
2018-07-10T21:08:30.709Z,101216.14
2018-07-10T21:11:06.322Z,101223.83
2018-07-10T21:13:46.842Z,101225.78
2018-07-10T21:16:20.270Z,101228.88
2018-07-10T21:19:02.603Z,101223.91
2018-07-10T21:21:44.458Z,101221.13
2018-07-10T21:24:56.371Z,101229.39
2018-07-10T21:27:48.622Z,101228.45
2018-07-10T21:30:26.359Z,101237.30
2018-07-10T21:32:59.121Z,101232.28
2018-07-10T21:35:35.694Z,101236.28
2018-07-10T21:38:15.859Z,101233.39
2018-07-10T21:40:54.655Z,101234.22
2018-07-10T21:43:30.833Z,101227.80
2018-07-10T21:46:07.560Z,101236.81
2018-07-10T21:50:49.565Z,101229.08
2018-07-10T21:53:19.238Z,101234.25
2018-07-10T21:55:51.391Z,101244.11
2018-07-10T21:58:21.954Z,101246.85
2018-07-10T22:02:02.996Z,101249.36
2018-07-10T22:04:35.099Z,101249.89
2018-07-10T22:07:06.187Z,101253.94
2018-07-10T22:09:37.067Z,101257.63
2018-07-10T22:12:09.739Z,101252.77
2018-07-10T22:14:38.928Z,101259.18
2018-07-10T22:17:13.264Z,101254.05
2018-07-10T22:19:44.131Z,101251.22
2018-07-10T22:22:17.568Z,101247.89
2018-07-10T22:24:47.022Z,101256.09
2018-07-10T22:27:16.250Z,101254.40
2018-07-10T22:29:51.420Z,101252.50
2018-07-10T22:32:25.912Z,101249.37
2018-07-10T22:34:55.060Z,101257.56
2018-07-10T22:37:24.164Z,101256.80
2018-07-10T22:39:53.274Z,101259.86
2018-07-10T22:42:22.423Z,101262.33
2018-07-10T22:44:53.224Z,101261.39
2018-07-10T22:47:40.215Z,101253.09
2018-07-10T22:50:13.188Z,101260.06
2018-07-10T22:52:47.579Z,101257.76
2018-07-10T22:55:20.803Z,101257.66
2018-07-10T22:57:51.440Z,101260.06
2018-07-10T23:00:38.420Z,101260.98
2018-07-10T23:03:18.489Z,101258.62
2018-07-10T23:05:49.129Z,101263.01
2018-07-10T23:08:20.090Z,101270.34
2018-07-10T23:10:49.621Z,101267.30
2018-07-10T23:13:19.369Z,101271.59
2018-07-10T23:15:49.320Z,101275.50
2018-07-10T23:18:18.997Z,101270.94
2018-07-10T23:20:48.163Z,101275.86
2018-07-10T23:23:17.626Z,101275.59
2018-07-10T23:25:46.709Z,101273.30
2018-07-10T23:28:15.880Z,101282.90
2018-07-10T23:30:45.309Z,101276.63
2018-07-10T23:33:18.617Z,101276.72
2018-07-10T23:35:50.104Z,101271.68
2018-07-10T23:38:53.583Z,101269.20
2018-07-10T23:41:30.919Z,101265.96
2018-07-10T23:44:00.572Z,101265.38
2018-07-10T23:46:34.364Z,101263.03
2018-07-10T23:49:09.868Z,101264.64
2018-07-10T23:51:50.751Z,101265.78
2018-07-10T23:54:20.575Z,101264.92
2018-07-10T23:56:49.663Z,101258.15
2018-07-10T23:59:18.799Z,101265.18
